createdAt,value
2022-10-06T00:00:39.915Z,0.00
2022-10-06T00:01:39.953Z,0.00
2022-10-06T00:02:39.922Z,0.00
2022-10-06T00:03:39.887Z,0.00
2022-10-06T00:04:39.873Z,0.00
2022-10-06T00:05:39.875Z,0.00
2022-10-06T00:06:39.851Z,0.00
2022-10-06T00:07:39.841Z,0.00
2022-10-06T00:08:39.843Z,0.00
2022-10-06T00:09:39.821Z,0.00
2022-10-06T00:10:39.843Z,0.00
2022-10-06T00:11:39.800Z,0.00
2022-10-06T00:12:39.785Z,0.00
2022-10-06T00:13:39.776Z,0.00
2022-10-06T00:14:39.765Z,0.00
2022-10-06T00:15:39.835Z,0.00
2022-10-06T00:16:39.743Z,0.00
2022-10-06T00:17:39.731Z,0.00
2022-10-06T00:18:39.720Z,0.00
2022-10-06T00:19:39.712Z,0.00
2022-10-06T00:20:39.769Z,0.00
2022-10-06T00:21:39.738Z,0.00
2022-10-06T00:22:39.676Z,0.00
2022-10-06T00:23:39.672Z,0.00
2022-10-06T00:24:39.656Z,0.00
2022-10-06T00:25:39.659Z,0.00
2022-10-06T00:26:39.651Z,0.00
2022-10-06T00:27:39.630Z,0.00
2022-10-06T00:28:39.690Z,0.00
2022-10-06T00:29:39.602Z,0.00
2022-10-06T00:30:39.617Z,0.00
2022-10-06T00:31:39.582Z,0.00
2022-10-06T00:32:39.569Z,0.00
2022-10-06T00:33:39.583Z,0.00
2022-10-06T00:34:39.547Z,0.00
2022-10-06T00:35:39.536Z,0.00
2022-10-06T00:36:39.537Z,0.00
2022-10-06T00:37:39.538Z,0.00
2022-10-06T00:38:39.503Z,0.00
2022-10-06T00:39:39.490Z,0.00
2022-10-06T00:40:39.482Z,0.00
2022-10-06T00:41:39.483Z,0.00
2022-10-06T00:42:39.475Z,0.00
2022-10-06T00:43:39.449Z,0.00
2022-10-06T00:44:39.472Z,0.00
2022-10-06T00:45:39.436Z,0.00
2022-10-06T00:46:39.482Z,0.00
2022-10-06T00:47:39.404Z,0.00
2022-10-06T00:48:39.393Z,0.00
2022-10-06T00:49:39.381Z,0.00
2022-10-06T00:50:39.374Z,0.00
2022-10-06T00:51:39.371Z,0.00
2022-10-06T00:52:39.349Z,0.00
2022-10-06T00:53:39.337Z,0.00
2022-10-06T00:54:39.329Z,0.00
2022-10-06T00:55:39.319Z,0.00
2022-10-06T00:56:39.316Z,0.00
2022-10-06T00:57:39.294Z,0.00
2022-10-06T00:58:39.300Z,0.00
2022-10-06T00:59:39.271Z,0.00
2022-10-06T01:00:39.264Z,0.00
2022-10-06T01:01:39.320Z,0.00
2022-10-06T01:02:39.330Z,0.00
2022-10-06T01:03:39.229Z,0.00
2022-10-06T01:04:39.218Z,0.00
2022-10-06T01:05:39.207Z,0.00
2022-10-06T01:06:39.209Z,0.00
2022-10-06T01:07:39.185Z,0.00
2022-10-06T01:08:39.174Z,0.00
2022-10-06T01:09:39.162Z,0.00
2022-10-06T01:10:39.170Z,0.00
2022-10-06T01:11:39.145Z,0.00
2022-10-06T01:12:39.131Z,0.00
2022-10-06T01:13:39.119Z,0.00
2022-10-06T01:14:39.124Z,0.00
2022-10-06T01:15:39.152Z,0.00
2022-10-06T01:16:39.091Z,0.00
2022-10-06T01:17:39.075Z,0.00
2022-10-06T01:18:39.065Z,0.00
2022-10-06T01:19:39.052Z,0.00
2022-10-06T01:20:39.067Z,0.00
2022-10-06T01:21:39.031Z,0.00
2022-10-06T01:22:39.029Z,0.00
2022-10-06T01:23:39.007Z,0.00
2022-10-06T01:24:39.004Z,0.00
2022-10-06T01:25:38.986Z,0.00
2022-10-06T01:26:38.988Z,0.00
2022-10-06T01:27:38.969Z,0.00
2022-10-06T01:28:39.045Z,0.00
2022-10-06T01:29:38.943Z,0.00
2022-10-06T01:30:38.959Z,0.00
2022-10-06T01:31:38.950Z,0.00
2022-10-06T01:32:38.915Z,0.00
2022-10-06T01:33:38.899Z,0.00
2022-10-06T01:34:38.898Z,0.00
2022-10-06T01:35:38.876Z,0.00
2022-10-06T01:36:38.885Z,0.00
2022-10-06T01:37:38.862Z,0.00
2022-10-06T01:38:38.846Z,0.00
2022-10-06T01:39:38.833Z,0.00
2022-10-06T01:40:38.829Z,0.00
2022-10-06T01:41:38.836Z,0.00
2022-10-06T01:42:38.804Z,0.00
2022-10-06T01:43:38.794Z,0.00
2022-10-06T01:44:38.786Z,0.00
2022-10-06T01:45:38.767Z,0.00
2022-10-06T01:46:38.874Z,0.00
2022-10-06T01:47:38.747Z,0.00
2022-10-06T01:48:38.737Z,0.00
2022-10-06T01:49:38.740Z,0.00
2022-10-06T01:50:38.730Z,0.00
2022-10-06T01:51:38.707Z,0.00
2022-10-06T01:52:38.693Z,0.00
2022-10-06T01:53:38.681Z,0.00
2022-10-06T01:54:38.671Z,0.00
2022-10-06T01:55:45.714Z,0.00
2022-10-06T01:56:38.649Z,0.00
2022-10-06T01:57:38.638Z,0.00
2022-10-06T01:58:38.634Z,0.00
2022-10-06T01:59:38.616Z,0.00
2022-10-06T02:00:38.620Z,0.00
2022-10-06T02:01:38.647Z,0.00
2022-10-06T02:02:38.603Z,0.00
2022-10-06T02:03:38.573Z,0.00
2022-10-06T02:04:38.565Z,0.00
2022-10-06T02:05:38.563Z,0.00
2022-10-06T02:06:38.579Z,0.00
2022-10-06T02:07:38.532Z,0.00
2022-10-06T02:08:38.520Z,0.00
2022-10-06T02:09:38.507Z,0.00
2022-10-06T02:10:38.510Z,0.00
2022-10-06T02:11:38.484Z,0.00
2022-10-06T02:12:38.475Z,0.00
2022-10-06T02:13:38.463Z,0.00
2022-10-06T02:14:38.455Z,0.00
2022-10-06T02:15:38.521Z,0.00
2022-10-06T02:16:38.433Z,0.00
2022-10-06T02:17:38.419Z,0.00
2022-10-06T02:18:38.427Z,0.00
2022-10-06T02:19:38.397Z,0.00
2022-10-06T02:20:38.397Z,0.00
2022-10-06T02:21:38.375Z,0.00
2022-10-06T02:22:38.366Z,0.00
2022-10-06T02:23:38.354Z,0.00
2022-10-06T02:24:38.346Z,0.00
2022-10-06T02:25:38.343Z,0.00
2022-10-06T02:26:38.323Z,0.00
2022-10-06T02:27:38.310Z,0.00
2022-10-06T02:28:38.317Z,0.00
2022-10-06T02:29:38.291Z,0.00
2022-10-06T02:30:38.289Z,0.00
2022-10-06T02:31:38.330Z,0.00
2022-10-06T02:32:38.259Z,0.00
2022-10-06T02:33:38.243Z,0.00
2022-10-06T02:34:38.252Z,0.00
2022-10-06T02:35:38.236Z,0.00
2022-10-06T02:36:38.213Z,0.00
2022-10-06T02:37:38.199Z,0.00
2022-10-06T02:38:38.195Z,0.00
2022-10-06T02:39:38.176Z,0.00
2022-10-06T02:40:38.183Z,0.00
2022-10-06T02:41:38.155Z,0.00
2022-10-06T02:42:38.146Z,0.00
2022-10-06T02:43:38.133Z,0.00
2022-10-06T02:44:38.127Z,0.00
2022-10-06T02:45:38.125Z,0.00
2022-10-06T02:46:38.123Z,0.00
2022-10-06T02:47:38.094Z,0.00
2022-10-06T02:48:38.081Z,0.00
2022-10-06T02:49:38.068Z,0.00
2022-10-06T02:50:38.083Z,0.00
2022-10-06T02:51:38.046Z,0.00
2022-10-06T02:52:38.036Z,0.00
2022-10-06T02:53:38.024Z,0.00
2022-10-06T02:54:38.014Z,0.00
2022-10-06T02:55:38.012Z,0.00
2022-10-06T02:56:37.999Z,0.00
2022-10-06T02:57:37.980Z,0.00
2022-10-06T02:58:37.972Z,0.00
2022-10-06T02:59:37.957Z,0.00
2022-10-06T03:00:37.959Z,0.00
2022-10-06T03:01:38.075Z,0.00
2022-10-06T03:02:38.109Z,0.00
2022-10-06T03:03:37.914Z,0.00
2022-10-06T03:04:37.905Z,0.00
2022-10-06T03:05:37.903Z,0.00
2022-10-06T03:06:37.898Z,0.00
2022-10-06T03:07:37.871Z,0.00
2022-10-06T03:08:37.876Z,0.00
2022-10-06T03:09:37.851Z,0.00
2022-10-06T03:10:37.847Z,0.00
2022-10-06T03:11:37.827Z,0.00
2022-10-06T03:12:37.818Z,0.00
2022-10-06T03:13:37.804Z,0.00
2022-10-06T03:14:37.796Z,0.00
2022-10-06T03:15:37.792Z,0.00
2022-10-06T03:16:37.773Z,0.00
2022-10-06T03:17:37.762Z,0.00
2022-10-06T03:18:37.752Z,0.00
2022-10-06T03:19:37.739Z,0.00
2022-10-06T03:20:37.742Z,0.00
2022-10-06T03:21:37.721Z,0.00
2022-10-06T03:22:37.724Z,0.00
2022-10-06T03:23:37.697Z,0.00
2022-10-06T03:24:37.688Z,0.00
2022-10-06T03:25:37.685Z,0.00
2022-10-06T03:26:37.666Z,0.00
2022-10-06T03:27:37.651Z,0.00
2022-10-06T03:28:37.724Z,0.00
2022-10-06T03:29:37.630Z,0.00
2022-10-06T03:30:37.636Z,0.00
2022-10-06T03:31:37.635Z,0.00
2022-10-06T03:32:37.608Z,0.00
2022-10-06T03:33:37.587Z,0.00
2022-10-06T03:34:37.605Z,0.00
2022-10-06T03:35:37.576Z,0.00
2022-10-06T03:36:37.557Z,0.00
2022-10-06T03:37:37.542Z,0.00
2022-10-06T03:38:37.551Z,0.00
2022-10-06T03:39:37.520Z,0.00
2022-10-06T03:40:37.522Z,0.00
2022-10-06T03:41:37.499Z,0.00
2022-10-06T03:42:37.490Z,0.00
2022-10-06T03:43:37.483Z,0.00
2022-10-06T03:44:37.469Z,0.00
2022-10-06T03:45:37.482Z,0.00
2022-10-06T03:46:37.533Z,0.00
2022-10-06T03:47:37.450Z,0.00
2022-10-06T03:48:37.446Z,0.00
2022-10-06T03:49:37.430Z,0.00
2022-10-06T03:50:37.430Z,0.00
2022-10-06T03:51:37.389Z,0.00
2022-10-06T03:52:37.380Z,0.00
2022-10-06T03:53:37.366Z,0.00
2022-10-06T03:54:37.375Z,0.00
2022-10-06T03:55:37.355Z,0.00
2022-10-06T03:56:37.339Z,0.00
2022-10-06T03:57:37.323Z,0.00
2022-10-06T03:58:37.314Z,0.00
2022-10-06T03:59:37.301Z,0.00
2022-10-06T04:00:37.355Z,0.00
2022-10-06T04:01:37.307Z,0.00
2022-10-06T04:02:37.270Z,0.00
2022-10-06T04:03:37.257Z,0.00
2022-10-06T04:04:37.249Z,0.00
2022-10-06T04:05:37.249Z,0.00
2022-10-06T04:06:37.230Z,0.00
2022-10-06T04:07:37.215Z,0.00
2022-10-06T04:08:37.205Z,0.00
2022-10-06T04:09:37.192Z,0.00
2022-10-06T04:10:37.212Z,0.00
2022-10-06T04:11:37.172Z,0.00
2022-10-06T04:12:37.178Z,0.00
2022-10-06T04:13:37.151Z,0.00
2022-10-06T04:14:37.141Z,0.00
2022-10-06T04:15:37.137Z,0.00
2022-10-06T04:16:37.141Z,0.00
2022-10-06T04:17:37.104Z,0.00
2022-10-06T04:18:37.095Z,0.00
2022-10-06T04:19:37.085Z,0.00
2022-10-06T04:20:37.099Z,0.00
2022-10-06T04:21:37.063Z,0.00
2022-10-06T04:22:37.076Z,0.00
2022-10-06T04:23:37.039Z,0.00
2022-10-06T04:24:37.055Z,0.00
2022-10-06T04:25:37.033Z,0.00
2022-10-06T04:26:37.022Z,0.00
2022-10-06T04:27:36.995Z,0.00
2022-10-06T04:28:37.059Z,0.00
2022-10-06T04:29:36.973Z,0.00
2022-10-06T04:30:36.964Z,0.00
2022-10-06T04:31:37.093Z,0.00
2022-10-06T04:32:36.942Z,0.00
2022-10-06T04:33:36.931Z,0.00
2022-10-06T04:34:36.921Z,0.00
2022-10-06T04:35:36.907Z,0.00
2022-10-06T04:36:36.907Z,0.00
2022-10-06T04:37:36.887Z,0.00
2022-10-06T04:38:36.876Z,0.00
2022-10-06T04:39:36.864Z,0.00
2022-10-06T04:40:36.854Z,0.00
2022-10-06T04:41:36.859Z,0.00
2022-10-06T04:42:36.854Z,0.00
2022-10-06T04:43:36.820Z,0.00
2022-10-06T04:44:36.816Z,0.00
2022-10-06T04:45:36.869Z,0.00
2022-10-06T04:46:44.956Z,0.00
2022-10-06T04:47:37.780Z,0.00
2022-10-06T04:48:36.779Z,0.00
2022-10-06T04:49:36.755Z,0.00
2022-10-06T04:50:36.773Z,0.00
2022-10-06T04:51:36.736Z,0.00
2022-10-06T04:52:36.725Z,0.00
2022-10-06T04:53:36.713Z,0.00
2022-10-06T04:54:36.699Z,0.00
2022-10-06T04:55:36.701Z,0.00
2022-10-06T04:56:36.679Z,0.00
2022-10-06T04:57:36.675Z,0.00
2022-10-06T04:58:36.674Z,0.00
2022-10-06T04:59:36.647Z,0.00
2022-10-06T05:00:36.697Z,0.00
2022-10-06T05:01:36.640Z,0.00
2022-10-06T05:02:36.709Z,0.00
2022-10-06T05:03:36.601Z,0.00
2022-10-06T05:04:36.593Z,0.00
2022-10-06T05:05:36.597Z,0.00
2022-10-06T05:06:36.613Z,0.00
2022-10-06T05:07:36.562Z,0.00
2022-10-06T05:08:36.555Z,0.00
2022-10-06T05:09:36.539Z,0.00
2022-10-06T05:10:36.535Z,0.00
2022-10-06T05:11:36.518Z,0.00
2022-10-06T05:12:36.502Z,0.00
2022-10-06T05:13:36.494Z,0.00
2022-10-06T05:14:36.596Z,0.00
2022-10-06T05:15:36.482Z,0.00
2022-10-06T05:16:36.547Z,0.00
2022-10-06T05:17:36.454Z,0.00
2022-10-06T05:18:36.436Z,0.00
2022-10-06T05:19:36.428Z,0.00
2022-10-06T05:20:36.427Z,0.00
2022-10-06T05:21:36.407Z,0.00
2022-10-06T05:22:36.393Z,0.00
2022-10-06T05:23:36.384Z,0.00
2022-10-06T05:24:36.379Z,0.00
2022-10-06T05:25:36.374Z,0.00
2022-10-06T05:26:36.351Z,0.00
2022-10-06T05:27:36.340Z,0.00
2022-10-06T05:28:36.377Z,5.62
2022-10-06T05:29:36.318Z,5.62
2022-10-06T05:30:36.345Z,5.62
2022-10-06T05:31:36.390Z,5.62
2022-10-06T05:32:36.408Z,5.62
2022-10-06T05:33:36.278Z,5.62
2022-10-06T05:34:36.261Z,5.62
2022-10-06T05:35:36.253Z,5.62
2022-10-06T05:36:36.253Z,5.62
2022-10-06T05:37:36.233Z,5.62
2022-10-06T05:38:36.219Z,11.25
2022-10-06T05:39:36.210Z,11.25
2022-10-06T05:40:36.198Z,11.25
2022-10-06T05:41:36.197Z,11.25
2022-10-06T05:42:36.184Z,11.25
2022-10-06T05:43:36.167Z,11.25
2022-10-06T05:44:36.155Z,11.25
2022-10-06T05:45:36.168Z,11.25
2022-10-06T05:46:36.260Z,16.88
2022-10-06T05:47:36.125Z,16.88
2022-10-06T05:48:36.109Z,22.50
2022-10-06T05:49:36.100Z,22.50
2022-10-06T05:50:36.088Z,22.50
2022-10-06T05:51:36.093Z,22.50
2022-10-06T05:52:36.092Z,28.12
2022-10-06T05:53:36.056Z,33.75
2022-10-06T05:54:36.044Z,39.38
2022-10-06T05:55:36.033Z,39.38
2022-10-06T05:56:36.034Z,39.38
2022-10-06T05:57:36.023Z,33.75
2022-10-06T05:58:36.254Z,39.38
2022-10-06T05:59:35.990Z,45.00
2022-10-06T06:00:35.978Z,50.62
2022-10-06T06:01:36.029Z,56.25
2022-10-06T06:02:36.080Z,56.25
2022-10-06T06:03:35.945Z,56.25
2022-10-06T06:04:35.967Z,56.25
2022-10-06T06:05:35.925Z,50.62
2022-10-06T06:06:35.925Z,56.25
2022-10-06T06:07:35.911Z,61.88
2022-10-06T06:08:35.889Z,61.88
2022-10-06T06:09:35.879Z,73.12
2022-10-06T06:10:35.867Z,61.88
2022-10-06T06:11:35.868Z,67.50
2022-10-06T06:12:35.854Z,78.75
2022-10-06T06:13:35.842Z,101.25
2022-10-06T06:14:35.823Z,180.00
2022-10-06T06:15:35.815Z,112.50
2022-10-06T06:16:35.844Z,219.38
2022-10-06T06:17:35.793Z,309.38
2022-10-06T06:18:35.800Z,545.62
2022-10-06T06:19:35.771Z,433.12
2022-10-06T06:20:35.765Z,646.88
2022-10-06T06:21:35.761Z,562.50
2022-10-06T06:22:35.738Z,315.00
2022-10-06T06:23:35.727Z,298.12
2022-10-06T06:24:35.716Z,331.88
2022-10-06T06:25:35.708Z,376.88
2022-10-06T06:26:35.705Z,793.12
2022-10-06T06:27:35.689Z,855.00
2022-10-06T06:28:35.742Z,922.50
2022-10-06T06:29:35.699Z,945.00
2022-10-06T06:30:35.661Z,973.12
2022-10-06T06:31:35.753Z,973.12
2022-10-06T06:32:35.630Z,995.62
2022-10-06T06:33:35.620Z,1006.88
2022-10-06T06:34:35.636Z,1018.12
2022-10-06T06:35:35.609Z,1046.25
2022-10-06T06:36:35.657Z,1085.62
2022-10-06T06:37:35.578Z,1108.12
2022-10-06T06:38:35.565Z,1102.50
2022-10-06T06:39:35.560Z,1119.38
2022-10-06T06:40:35.556Z,1158.75
2022-10-06T06:41:35.538Z,1164.38
2022-10-06T06:42:35.521Z,1192.50
2022-10-06T06:43:35.513Z,1203.75
2022-10-06T06:44:35.498Z,1220.62
2022-10-06T06:45:35.499Z,1248.75
2022-10-06T06:47:35.467Z,1316.25
2022-10-06T06:48:35.462Z,1355.62
2022-10-06T06:49:35.446Z,1366.88
2022-10-06T06:50:35.462Z,1400.62
2022-10-06T06:51:35.427Z,1462.50
2022-10-06T06:52:35.413Z,1141.88
2022-10-06T06:53:35.403Z,270.00
2022-10-06T06:54:35.391Z,236.25
2022-10-06T06:55:35.397Z,191.25
2022-10-06T06:56:35.524Z,562.50
2022-10-06T06:57:35.362Z,241.88
2022-10-06T06:58:35.348Z,736.88
2022-10-06T06:59:35.339Z,1558.12
2022-10-06T07:00:36.331Z,1580.62
2022-10-06T07:01:35.378Z,720.00
2022-10-06T07:02:35.376Z,1715.62
2022-10-06T07:03:58.635Z,1653.75
2022-10-06T07:04:36.285Z,1755.00
2022-10-06T07:05:35.291Z,1350.00
2022-10-06T07:06:35.353Z,1710.00
2022-10-06T07:07:35.259Z,1051.88
2022-10-06T07:08:35.244Z,1395.00
2022-10-06T07:09:35.235Z,286.88
2022-10-06T07:10:35.236Z,1777.50
2022-10-06T07:11:35.213Z,1710.00
2022-10-06T07:12:35.203Z,1608.75
2022-10-06T07:13:35.193Z,1760.62
2022-10-06T07:14:35.181Z,1974.38
2022-10-06T07:15:35.212Z,1991.25
2022-10-06T07:16:35.162Z,1957.50
2022-10-06T07:17:35.150Z,1912.50
2022-10-06T07:18:35.137Z,1996.88
2022-10-06T07:19:35.128Z,2041.88
2022-10-06T07:20:35.129Z,2019.38
2022-10-06T07:21:35.107Z,1974.38
2022-10-06T07:22:35.117Z,2002.50
2022-10-06T07:23:35.099Z,1991.25
2022-10-06T07:24:35.077Z,1980.00
2022-10-06T07:25:35.075Z,2053.12
2022-10-06T07:26:35.056Z,2058.75
2022-10-06T07:27:35.046Z,1940.62
2022-10-06T07:28:35.075Z,2137.50
2022-10-06T07:29:35.082Z,2131.88
2022-10-06T07:30:38.470Z,2261.25
2022-10-06T07:31:36.098Z,298.12
2022-10-06T07:32:34.993Z,2289.38
2022-10-06T07:33:34.984Z,382.50
2022-10-06T07:34:35.014Z,2328.75
2022-10-06T07:35:34.996Z,528.75
2022-10-06T07:36:34.952Z,382.50
2022-10-06T07:37:34.943Z,1968.75
2022-10-06T07:38:34.949Z,2418.75
2022-10-06T07:39:34.939Z,1389.38
2022-10-06T07:40:34.913Z,2475.00
2022-10-06T07:41:34.902Z,2559.38
2022-10-06T07:42:34.891Z,489.38
2022-10-06T07:43:34.882Z,1940.62
2022-10-06T07:44:34.870Z,2205.00
2022-10-06T07:45:34.968Z,2430.00
2022-10-06T07:46:34.853Z,804.38
2022-10-06T07:47:34.841Z,2649.38
2022-10-06T07:48:34.829Z,2025.00
2022-10-06T07:49:34.820Z,264.38
2022-10-06T07:50:34.819Z,315.00
2022-10-06T07:51:34.799Z,371.25
2022-10-06T07:52:34.791Z,444.38
2022-10-06T07:53:34.779Z,376.88
2022-10-06T07:54:34.784Z,489.38
2022-10-06T07:55:34.770Z,213.75
2022-10-06T07:56:34.749Z,219.38
2022-10-06T07:57:34.743Z,270.00
2022-10-06T07:58:34.724Z,298.12
2022-10-06T07:59:34.717Z,416.25
2022-10-06T08:00:34.725Z,939.38
2022-10-06T08:01:34.767Z,337.50
2022-10-06T08:02:35.950Z,1884.38
2022-10-06T08:03:34.672Z,894.38
2022-10-06T08:04:34.663Z,1828.12
2022-10-06T08:05:34.662Z,157.50
2022-10-06T08:06:34.642Z,230.62
2022-10-06T08:07:34.631Z,281.25
2022-10-06T08:08:34.624Z,405.00
2022-10-06T08:09:34.610Z,191.25
2022-10-06T08:10:34.645Z,2581.88
2022-10-06T08:11:34.590Z,2238.75
2022-10-06T08:12:34.698Z,2756.25
2022-10-06T08:13:34.571Z,270.00
2022-10-06T08:14:34.556Z,2700.00
2022-10-06T08:15:34.556Z,455.62
2022-10-06T08:16:34.597Z,2761.88
2022-10-06T08:17:34.525Z,641.25
2022-10-06T08:18:45.893Z,1372.50
2022-10-06T08:19:35.504Z,2109.38
2022-10-06T08:20:34.509Z,2171.25
2022-10-06T08:21:34.511Z,1873.12
2022-10-06T08:22:34.507Z,1631.25
2022-10-06T08:23:34.464Z,1850.62
2022-10-06T08:25:01.035Z,343.12
2022-10-06T08:25:35.453Z,360.00
2022-10-06T08:26:34.464Z,1018.12
2022-10-06T08:27:34.424Z,1845.00
2022-10-06T08:28:34.521Z,371.25
2022-10-06T08:29:34.413Z,264.38
2022-10-06T08:30:34.404Z,382.50
2022-10-06T08:31:34.424Z,1350.00
2022-10-06T08:32:34.371Z,1445.62
2022-10-06T08:33:34.360Z,1220.62
2022-10-06T08:34:34.358Z,303.75
2022-10-06T08:35:34.354Z,1355.62
2022-10-06T08:36:34.326Z,1698.75
2022-10-06T08:37:34.317Z,270.00
2022-10-06T08:38:34.308Z,1946.25
2022-10-06T08:39:34.300Z,286.88
2022-10-06T08:40:34.295Z,1963.12
2022-10-06T08:41:34.273Z,275.62
2022-10-06T08:42:34.278Z,2199.38
2022-10-06T08:43:34.254Z,534.38
2022-10-06T08:44:34.242Z,2773.12
2022-10-06T08:45:38.439Z,315.00
2022-10-06T08:46:34.223Z,270.00
2022-10-06T08:47:34.225Z,399.38
2022-10-06T08:48:34.201Z,1282.50
2022-10-06T08:49:34.193Z,320.62
2022-10-06T08:50:34.207Z,1254.38
2022-10-06T08:51:34.168Z,939.38
2022-10-06T08:52:34.174Z,433.12
2022-10-06T08:53:34.150Z,517.50
2022-10-06T08:54:34.142Z,596.25
2022-10-06T08:55:34.153Z,1316.25
2022-10-06T08:56:34.117Z,534.38
2022-10-06T08:57:34.128Z,489.38
2022-10-06T08:58:34.939Z,618.75
2022-10-06T08:59:34.089Z,1423.12
2022-10-06T09:00:34.122Z,2160.00
2022-10-06T09:01:34.111Z,2548.12
2022-10-06T09:02:34.153Z,3043.12
2022-10-06T09:03:34.042Z,416.25
2022-10-06T09:04:34.033Z,3313.12
2022-10-06T09:05:34.090Z,3403.12
2022-10-06T09:06:34.095Z,2953.12
2022-10-06T09:07:34.005Z,3065.62
2022-10-06T09:08:34.001Z,3386.25
2022-10-06T09:09:33.981Z,3155.62
2022-10-06T09:10:34.002Z,2902.50
2022-10-06T09:11:33.956Z,2851.88
2022-10-06T09:12:33.947Z,2756.25
2022-10-06T09:13:33.935Z,3043.12
2022-10-06T09:14:33.943Z,2925.00
2022-10-06T09:15:33.936Z,3076.88
2022-10-06T09:16:33.984Z,3251.25
2022-10-06T09:17:33.893Z,3420.00
2022-10-06T09:18:56.104Z,3543.75
2022-10-06T09:19:34.872Z,3425.62
2022-10-06T09:20:33.879Z,3442.50
2022-10-06T09:21:33.852Z,3476.25
2022-10-06T09:22:33.852Z,3487.50
2022-10-06T09:23:33.833Z,3656.25
2022-10-06T09:24:33.825Z,3661.88
2022-10-06T09:25:33.824Z,3436.88
2022-10-06T09:26:33.803Z,3375.00
2022-10-06T09:27:33.809Z,3594.38
2022-10-06T09:28:33.867Z,3690.00
2022-10-06T09:29:33.775Z,3729.38
2022-10-06T09:30:33.793Z,3656.25
2022-10-06T09:31:33.815Z,3571.88
2022-10-06T09:32:33.746Z,3543.75
2022-10-06T09:33:33.737Z,3645.00
2022-10-06T09:34:33.728Z,3650.62
2022-10-06T09:35:33.750Z,3656.25
2022-10-06T09:36:33.706Z,3594.38
2022-10-06T09:37:33.700Z,3650.62
2022-10-06T09:38:33.686Z,3183.75
2022-10-06T09:39:33.675Z,3735.00
2022-10-06T09:40:33.675Z,3650.62
2022-10-06T09:41:33.656Z,3453.75
2022-10-06T09:42:33.647Z,3622.50
2022-10-06T09:43:33.642Z,478.12
2022-10-06T09:44:33.629Z,3751.88
2022-10-06T09:45:33.647Z,3757.50
2022-10-06T09:46:33.632Z,3650.62
2022-10-06T09:47:33.604Z,3673.12
2022-10-06T09:48:33.589Z,3757.50
2022-10-06T09:49:33.582Z,3875.62
2022-10-06T09:50:33.582Z,3965.62
2022-10-06T09:51:33.558Z,3729.38
2022-10-06T09:52:33.553Z,3543.75
2022-10-06T09:53:37.518Z,3420.00
2022-10-06T09:54:33.533Z,3363.75
2022-10-06T09:55:33.534Z,1226.25
2022-10-06T09:56:33.514Z,3611.25
2022-10-06T09:57:33.503Z,3650.62
2022-10-06T09:58:33.497Z,3695.62
2022-10-06T09:59:39.117Z,3751.88
2022-10-06T10:00:34.577Z,3802.50
2022-10-06T10:01:33.468Z,309.38
2022-10-06T10:02:33.533Z,208.12
2022-10-06T10:03:33.446Z,3971.25
2022-10-06T10:04:33.437Z,3875.62
2022-10-06T10:05:33.437Z,1198.12
2022-10-06T10:06:33.447Z,3858.75
2022-10-06T10:07:33.406Z,3712.50
2022-10-06T10:09:33.402Z,3965.62
2022-10-06T10:10:33.387Z,3211.88
2022-10-06T10:11:33.369Z,3183.75
2022-10-06T10:12:33.361Z,399.38
2022-10-06T10:13:33.352Z,1777.50
2022-10-06T10:14:33.420Z,376.88
2022-10-06T10:15:33.333Z,3853.12
2022-10-06T10:16:33.399Z,3746.25
2022-10-06T10:17:33.312Z,3487.50
2022-10-06T10:18:33.327Z,1625.62
2022-10-06T10:19:33.299Z,3611.25
2022-10-06T10:20:33.295Z,2013.75
2022-10-06T10:21:33.301Z,3521.25
2022-10-06T10:22:33.272Z,506.25
2022-10-06T10:23:33.255Z,3515.62
2022-10-06T10:24:33.256Z,1923.75
2022-10-06T10:25:33.234Z,450.00
2022-10-06T10:26:33.229Z,438.75
2022-10-06T10:27:33.213Z,399.38
2022-10-06T10:28:33.277Z,258.75
2022-10-06T10:29:33.444Z,281.25
2022-10-06T10:30:33.185Z,236.25
2022-10-06T10:31:33.252Z,236.25
2022-10-06T10:32:33.164Z,219.38
2022-10-06T10:33:33.156Z,230.62
2022-10-06T10:34:33.182Z,225.00
2022-10-06T10:35:33.132Z,236.25
2022-10-06T10:36:33.205Z,253.12
2022-10-06T10:37:33.112Z,292.50
2022-10-06T10:38:33.198Z,270.00
2022-10-06T10:39:33.106Z,230.62
2022-10-06T10:40:33.095Z,213.75
2022-10-06T10:41:33.076Z,219.38
2022-10-06T10:42:33.076Z,196.88
2022-10-06T10:43:33.049Z,236.25
2022-10-06T10:44:33.050Z,213.75
2022-10-06T10:45:33.029Z,196.88
2022-10-06T10:46:33.068Z,196.88
2022-10-06T10:47:33.034Z,185.62
2022-10-06T10:48:33.003Z,185.62
2022-10-06T10:49:33.011Z,219.38
2022-10-06T10:50:33.015Z,202.50
2022-10-06T10:51:32.964Z,208.12
2022-10-06T10:52:32.956Z,219.38
2022-10-06T10:53:32.990Z,213.75
2022-10-06T10:54:32.953Z,202.50
2022-10-06T10:55:32.921Z,208.12
2022-10-06T10:56:32.914Z,196.88
2022-10-06T10:57:32.898Z,213.75
2022-10-06T10:58:32.890Z,264.38
2022-10-06T10:59:32.885Z,219.38
2022-10-06T11:00:32.909Z,202.50
2022-10-06T11:01:32.917Z,230.62
2022-10-06T11:02:32.845Z,236.25
2022-10-06T11:03:32.832Z,219.38
2022-10-06T11:04:32.840Z,236.25
2022-10-06T11:05:32.810Z,230.62
2022-10-06T11:06:32.818Z,219.38
2022-10-06T11:07:32.788Z,208.12
2022-10-06T11:08:32.780Z,219.38
2022-10-06T11:09:32.787Z,225.00
2022-10-06T11:10:32.762Z,213.75
2022-10-06T11:11:32.750Z,202.50
2022-10-06T11:12:32.749Z,208.12
2022-10-06T11:13:32.738Z,196.88
2022-10-06T11:14:32.754Z,191.25
2022-10-06T11:15:32.718Z,196.88
2022-10-06T11:16:32.705Z,202.50
2022-10-06T11:17:32.687Z,202.50
2022-10-06T11:18:32.672Z,140.62
2022-10-06T11:19:32.721Z,185.62
2022-10-06T11:20:32.653Z,191.25
2022-10-06T11:21:32.638Z,180.00
2022-10-06T11:22:32.651Z,146.25
2022-10-06T11:23:32.619Z,157.50
2022-10-06T11:24:32.612Z,213.75
2022-10-06T11:25:34.978Z,196.88
2022-10-06T11:26:32.588Z,213.75
2022-10-06T11:27:32.579Z,213.75
2022-10-06T11:28:32.641Z,241.88
2022-10-06T11:29:32.555Z,225.00
2022-10-06T11:30:32.556Z,202.50
2022-10-06T11:31:32.554Z,202.50
2022-10-06T11:32:32.528Z,202.50
2022-10-06T11:33:32.515Z,157.50
2022-10-06T11:34:32.511Z,140.62
2022-10-06T11:35:32.621Z,213.75
2022-10-06T11:36:32.485Z,219.38
2022-10-06T11:37:32.472Z,191.25
2022-10-06T11:38:32.486Z,180.00
2022-10-06T11:39:32.452Z,174.38
2022-10-06T11:40:32.460Z,168.75
2022-10-06T11:41:32.439Z,163.12
2022-10-06T11:42:32.425Z,163.12
2022-10-06T11:43:32.416Z,168.75
2022-10-06T11:44:32.403Z,163.12
2022-10-06T11:45:32.419Z,168.75
2022-10-06T11:46:32.738Z,157.50
2022-10-06T11:47:35.484Z,151.88
2022-10-06T11:48:32.358Z,157.50
2022-10-06T11:49:32.347Z,151.88
2022-10-06T11:50:32.349Z,146.25
2022-10-06T11:51:32.354Z,112.50
2022-10-06T11:52:32.316Z,146.25
2022-10-06T11:53:32.305Z,157.50
2022-10-06T11:54:32.311Z,163.12
2022-10-06T11:55:32.297Z,157.50
2022-10-06T11:56:32.275Z,140.62
2022-10-06T11:57:32.266Z,140.62
2022-10-06T11:58:42.348Z,146.25
2022-10-06T11:59:33.237Z,146.25
2022-10-06T12:00:32.236Z,151.88
2022-10-06T12:01:32.215Z,146.25
2022-10-06T12:02:32.331Z,146.25
2022-10-06T12:03:32.193Z,146.25
2022-10-06T12:04:32.186Z,146.25
2022-10-06T12:06:33.167Z,135.00
2022-10-06T12:07:32.152Z,135.00
2022-10-06T12:08:32.143Z,140.62
2022-10-06T12:09:32.145Z,140.62
2022-10-06T12:10:32.146Z,135.00
2022-10-06T12:11:32.111Z,135.00
2022-10-06T12:12:32.145Z,135.00
2022-10-06T12:17:33.050Z,123.75
2022-10-06T12:18:32.061Z,129.38
2022-10-06T12:19:32.027Z,123.75
2022-10-06T12:20:32.022Z,123.75
2022-10-06T12:21:32.001Z,123.75
2022-10-06T12:22:31.991Z,129.38
2022-10-06T12:23:31.981Z,123.75
2022-10-06T12:24:31.968Z,118.12
2022-10-06T12:25:31.968Z,118.12
2022-10-06T12:26:31.998Z,118.12
2022-10-06T12:27:31.935Z,118.12
2022-10-06T12:28:31.979Z,118.12
2022-10-06T12:29:31.915Z,118.12
2022-10-06T12:30:31.986Z,118.12
2022-10-06T12:31:31.895Z,118.12
2022-10-06T12:32:31.885Z,123.75
2022-10-06T12:33:31.887Z,123.75
2022-10-06T12:34:31.861Z,123.75
2022-10-06T12:35:31.859Z,123.75
2022-10-06T12:36:31.839Z,118.12
2022-10-06T12:37:31.828Z,118.12
2022-10-06T12:38:31.862Z,118.12
2022-10-06T12:39:31.807Z,118.12
2022-10-06T12:40:31.809Z,118.12
2022-10-06T12:41:31.784Z,118.12
2022-10-06T12:42:31.792Z,118.12
2022-10-06T12:43:31.773Z,118.12
2022-10-06T12:44:31.754Z,118.12
2022-10-06T12:45:31.750Z,129.38
2022-10-06T12:46:31.807Z,140.62
2022-10-06T12:47:31.722Z,140.62
2022-10-06T12:48:31.709Z,135.00
2022-10-06T12:49:31.699Z,129.38
2022-10-06T12:50:31.698Z,123.75
2022-10-06T12:52:31.668Z,129.38
2022-10-06T12:53:31.653Z,140.62